• Join FlightAware (Why Join?)
  • Login
  • US Flag 
10:58PM EDT


 

Airport Tracker/Info


-or-


 

Live Flight TrackerFlight Track Log ✈ FDX1347 ✈ 29-Oct-2013 ✈ KALB - KMEM

Flight Track Log - Related Links

Times and Time Zones

All times are in EDT time to prevent confusion due to time zone crossing. See the FDX1347 flight status page for this flight to view local times or setup timezone preferences in your user account.

Time Position Orientation Groundspeed Altitude Reporting Facility
EDT Latitude Longitude Course Direction KTS MPH feet Rate Location/Type
09:59PM 42.7250 -73.8058 260° West 171 197 1,600  Level Boston Center
10:00PM 42.7194 -73.8478 260° West 183 211 3,200 2,100 Climbing Boston Center
10:00PM 42.7236 -73.8694 285° West 184 212 3,800 2,580 Climbing Boston Center
10:01PM 42.7275 -73.9553 274° West 229 264 6,700 2,160 Climbing Boston Center
10:07PM 42.7690 -74.6310 274° West 350 403 18,500 1,980 Climbing FlightAware
10:07PM 42.7650 -74.6860 264° West 358 412 19,200 1,680 Climbing FlightAware
10:08PM 42.7460 -74.7430 246° West 375 432 19,900 1,860 Climbing FlightAware
10:09PM 42.6890 -74.8460 233° Southwest 382 440 21,700 1,860 Climbing FlightAware
10:09PM 42.6580 -74.8990 232° Southwest 383 441 22,500 1,620 Climbing FlightAware
10:10PM 42.5980 -75.0070 233° Southwest 390 449 24,000 1,620 Climbing FlightAware
10:11PM 42.5710 -75.0540 232° Southwest 392 451 24,700 1,500 Climbing FlightAware
10:11PM 42.5400 -75.1090 233° Southwest 395 455 25,300 1,320 Climbing FlightAware
10:12PM 42.4650 -75.2420 233° Southwest 405 466 26,800 1,320 Climbing FlightAware
10:13PM 42.4080 -75.3480 234° Southwest 413 475 27,900 1,200 Climbing FlightAware
10:14PM 42.3590 -75.4390 234° Southwest 425 489 28,800 1,620 Climbing FlightAware
10:15PM 42.2780 -75.5870 234° Southwest 422 486 31,000 2,040 Climbing FlightAware
10:16PM 42.2240 -75.6850 233° Southwest 409 471 32,800 2,220 Climbing FlightAware
10:16PM 42.1990 -75.7320 234° Southwest 404 465 33,600 1,500 Climbing FlightAware
10:17PM 42.1360 -75.8480 234° Southwest 394 453 34,800 900 Climbing FlightAware
10:18PM 42.0980 -75.9180 234° Southwest 382 440 35,000 120 Climbing FlightAware
10:19PM 42.0360 -76.0290 233° Southwest 386 444 35,000  Level FlightAware
10:19PM 41.9990 -76.0960 233° Southwest 387 445 35,000 900 Level FlightAware
10:20PM 41.9480 -76.1880 233° Southwest 378 435 36,300 1,380 Climbing FlightAware
10:20PM 41.9140 -76.2480 233° Southwest 378 435 36,900 960 Climbing FlightAware
10:21PM 41.8720 -76.3260 234° Southwest 384 442 37,500 840 Climbing FlightAware
10:22PM 41.8380 -76.3850 232° Southwest 382 440 38,000 420 Climbing FlightAware
10:22PM 41.7980 -76.4580 234° Southwest 372 428 38,000  Level FlightAware
10:23PM 41.7540 -76.5370 233° Southwest 366 421 38,000  Level FlightAware
10:24PM 41.7050 -76.6530 241° Southwest 364 419 38,000  Level FlightAware
10:25PM 41.6610 -76.7670 243° Southwest 366 421 38,000  Level FlightAware
10:26PM 41.6310 -76.8410 242° Southwest 366 421 38,000  Level FlightAware
10:26PM 41.5930 -76.9370 242° Southwest 365 420 38,000  Level FlightAware
10:27PM 41.5520 -77.0430 243° Southwest 365 420 38,000  Level FlightAware
10:28PM 41.5140 -77.1400 242° Southwest 364 419 38,000  Level FlightAware
10:29PM 41.4750 -77.2350 241° Southwest 363 418 38,000  Level FlightAware
10:30PM 41.4380 -77.3300 243° Southwest 363 418 38,000  Level FlightAware
10:31PM 41.3910 -77.4470 242° Southwest 365 420 38,000  Level FlightAware
10:31PM 41.3550 -77.5360 242° Southwest 366 421 38,000  Level FlightAware
10:32PM 41.3140 -77.6380 242° Southwest 367 422 38,000  Level FlightAware
10:33PM 41.2720 -77.7410 242° Southwest 369 425 38,000  Level FlightAware
10:34PM 41.2260 -77.8540 242° Southwest 371 427 38,000  Level FlightAware
10:35PM 41.1840 -77.9560 241° Southwest 372 428 38,000  Level FlightAware
10:36PM 41.1410 -78.0630 242° Southwest 373 429 38,000  Level FlightAware
10:36PM 41.1140 -78.1290 242° Southwest 373 429 38,000  Level FlightAware
10:37PM 41.0730 -78.2270 241° Southwest 373 429 38,000  Level FlightAware
10:38PM 41.0350 -78.3200 242° Southwest 373 429 38,000  Level FlightAware
10:38PM 41.0100 -78.3810 242° Southwest 373 429 38,000  Level FlightAware
10:39PM 40.9650 -78.4870 241° Southwest 372 428 38,000  Level FlightAware
10:40PM 40.9260 -78.5830 242° Southwest 372 428 38,000  Level FlightAware
10:41PM 40.8810 -78.6890 241° Southwest 372 428 38,000  Level FlightAware
10:42PM 40.8360 -78.7980 241° Southwest 372 428 38,000  Level FlightAware
10:43PM 40.8010 -78.8790 240° Southwest 372 428 38,000  Level FlightAware
10:43PM 40.7660 -78.9630 241° Southwest 372 428 38,000  Level FlightAware
10:44PM 40.7410 -79.0230 241° Southwest 373 429 38,000  Level FlightAware
10:45PM 40.6940 -79.1340 241° Southwest 374 430 38,000  Level FlightAware
10:46PM 40.6510 -79.2330 240° Southwest 375 432 38,000  Level FlightAware
10:46PM 40.6090 -79.3330 241° Southwest 376 433 38,000  Level FlightAware
10:47PM 40.5720 -79.4190 240° Southwest 377 434 38,000  Level FlightAware
10:48PM 40.5190 -79.5410 240° Southwest 377 434 38,000  Level FlightAware
10:49PM 40.4960 -79.5970 242° Southwest 377 434 38,000  Level FlightAware
10:49PM 40.4670 -79.6630 240° Southwest 377 434 38,000  Level FlightAware
10:50PM 40.4260 -79.7560 240° Southwest 378 435 38,000  Level FlightAware
10:50PM 40.4000 -79.8160 240° Southwest 377 434 38,000  Level FlightAware
10:51PM 40.3554 -79.9192 240° Southwest 378 435 38,000  Level FlightAware ADS-B (KAGC)
10:52PM 40.3230 -79.9950 241° Southwest 377 434 38,000  Level FlightAware
10:53PM 40.4221 -79.7662 60° Northeast 378 435 38,000  Level FlightAware ADS-B (KAGC)
10:54PM 40.2400 -80.1830 240° Southwest 377 434 38,000  Level FlightAware
10:54PM 40.2140 -80.2420 240° Southwest 377 434 38,000  Level FlightAware
10:55PM 40.1830 -80.3110 240° Southwest 377 434 38,000  Level FlightAware
10:56PM 40.1190 -80.4570 240° Southwest 379 436 38,000  Level FlightAware
10:57PM 40.0740 -80.5590 240° Southwest 379 436 38,000  Level FlightAware
10:58PM 40.0270 -80.6620 239° Southwest 381 438 38,000  Level FlightAware
10:58PM 39.9870 -80.7510 240° Southwest 381 438 38,000  Level FlightAware
10:59PM 39.9540 -80.8260 240° Southwest 382 440 38,000  Level FlightAware
11:00PM 39.8920 -80.9610 239° Southwest 381 438 38,000  Level FlightAware
11:01PM 39.8490 -81.0580 240° Southwest 379 436 38,000  Level FlightAware
11:02PM 39.8070 -81.1520 240° Southwest 377 434 38,000  Level FlightAware
11:03PM 39.7610 -81.2530 239° Southwest 378 435 38,000  Level FlightAware
11:03PM 39.7300 -81.3200 239° Southwest 377 434 38,000  Level FlightAware
11:04PM 39.6840 -81.4210 239° Southwest 377 434 38,000  Level FlightAware
11:05PM 39.6560 -81.4830 240° Southwest 377 434 38,000  Level FlightAware
11:05PM 39.6270 -81.5450 239° Southwest 377 434 38,000  Level FlightAware
11:06PM 39.5840 -81.6370 239° Southwest 380 437 38,000  Level FlightAware
11:07PM 39.5350 -81.7450 240° Southwest 379 436 38,000  Level FlightAware
11:08PM 39.4910 -81.8390 239° Southwest 380 437 38,000  Level FlightAware
11:08PM 39.4420 -81.9440 239° Southwest 382 440 38,000  Level FlightAware
11:09PM 39.3890 -82.0580 239° Southwest 382 440 38,000  Level FlightAware
11:10PM 39.3380 -82.1670 239° Southwest 383 441 38,000  Level FlightAware
11:11PM 39.3000 -82.2490 239° Southwest 382 440 38,000  Level FlightAware
11:12PM 39.2700 -82.3120 238° Southwest 382 440 38,000  Level FlightAware
11:12PM 39.2350 -82.3860 239° Southwest 383 441 38,000  Level FlightAware
11:13PM 39.1850 -82.4910 238° Southwest 384 442 38,000  Level FlightAware
11:14PM 39.1500 -82.5650 239° Southwest 384 442 38,000  Level FlightAware
11:15PM 39.1030 -82.6600 238° Southwest 386 444 38,000  Level FlightAware
11:15PM 39.0550 -82.7470 235° Southwest 389 448 38,000  Level FlightAware
11:16PM 39.0060 -82.8340 234° Southwest 388 447 38,000  Level FlightAware
11:16PM 38.9830 -82.8730 233° Southwest 387 445 38,000  Level FlightAware
11:18PM 38.9120 -82.9960 233° Southwest 384 442 38,000  Level FlightAware
11:18PM 38.8540 -83.0990 234° Southwest 380 437 38,000  Level FlightAware
11:19PM 38.8000 -83.1920 233° Southwest 379 436 38,000  Level FlightAware
11:20PM 38.7540 -83.2730 234° Southwest 377 434 38,000  Level FlightAware
11:21PM 38.7050 -83.3580 234° Southwest 377 434 38,000  Level FlightAware
11:22PM 38.6620 -83.4330 234° Southwest 378 435 38,000  Level FlightAware
11:23PM 38.6010 -83.5380 233° Southwest 379 436 38,000  Level FlightAware
11:23PM 38.5720 -83.5880 233° Southwest 379 436 38,000  Level FlightAware
11:24PM 38.5270 -83.6680 234° Southwest 380 437 38,000  Level FlightAware
11:25PM 38.4720 -83.7610 233° Southwest 378 435 38,000  Level FlightAware
11:25PM 38.4440 -83.8100 234° Southwest 377 434 38,000  Level FlightAware
11:26PM 38.3980 -83.8880 233° Southwest 373 429 38,000  Level FlightAware
11:26PM 38.3700 -83.9350 233° Southwest 373 429 38,000  Level FlightAware
11:27PM 38.3070 -84.0420 233° Southwest 370 426 38,000  Level FlightAware
11:28PM 38.2510 -84.1380 233° Southwest 368 423 38,000  Level FlightAware
11:29PM 38.2180 -84.1930 233° Southwest 367 422 38,000  Level FlightAware
11:30PM 38.1640 -84.2850 233° Southwest 367 422 38,000  Level FlightAware
11:31PM 38.1030 -84.3880 233° Southwest 367 422 38,000  Level FlightAware
11:31PM 38.0520 -84.4730 233° Southwest 370 426 38,000  Level FlightAware
11:32PM 38.0190 -84.5290 233° Southwest 371 427 38,000  Level FlightAware
11:33PM 37.9458 -84.6506 233° Southwest 373 429 38,000  Level FlightAware ADS-B
11:34PM 37.9140 -84.7048 233° Southwest 375 432 38,000  Level FlightAware ADS-B
11:34PM 37.8640 -84.7890 233° Southwest 375 432 38,000  Level FlightAware
11:35PM 37.8090 -84.8800 233° Southwest 376 433 38,000  Level FlightAware
11:36PM 37.7590 -84.9620 232° Southwest 376 433 38,000  Level FlightAware
11:37PM 37.7040 -85.0530 233° Southwest 376 433 38,000  Level FlightAware
11:38PM 37.6524 -85.1381 233° Southwest 377 434 38,000  Level FlightAware ADS-B
11:38PM 37.6201 -85.1903 232° Southwest 377 434 38,000  Level FlightAware ADS-B
11:39PM 37.5878 -85.2443 233° Southwest 377 434 38,000  Level FlightAware ADS-B
11:39PM 37.5559 -85.2963 232° Southwest 374 430 38,000  Level FlightAware ADS-B
11:40PM 37.5208 -85.3534 232° Southwest 374 430 38,000  Level FlightAware ADS-B
11:40PM 37.4888 -85.4051 232° Southwest 374 430 38,000  Level FlightAware ADS-B
11:41PM 37.4569 -85.4570 232° Southwest 374 430 38,000  Level FlightAware ADS-B
11:42PM 37.4084 -85.5361 232° Southwest 374 430 38,000  Level FlightAware ADS-B
11:42PM 37.3758 -85.5894 232° Southwest 373 429 38,000  Level FlightAware ADS-B
11:43PM 37.3440 -85.6407 232° Southwest 373 429 38,000  Level FlightAware ADS-B
11:43PM 37.3020 -85.7090 232° Southwest 372 428 38,000  Level FlightAware
11:44PM 37.2450 -85.8010 232° Southwest 372 428 38,000  Level FlightAware
11:45PM 37.1790 -85.9070 232° Southwest 372 428 38,000  Level FlightAware
11:46PM 37.1330 -85.9820 232° Southwest 371 427 38,000  Level FlightAware
11:47PM 37.0690 -86.0830 232° Southwest 374 430 38,000  Level FlightAware
11:48PM 37.0090 -86.1790 232° Southwest 373 429 38,000  Level FlightAware
11:49PM 36.9570 -86.2620 232° Southwest 374 430 38,000  Level FlightAware
11:50PM 36.9060 -86.3440 232° Southwest 376 433 38,000  Level FlightAware
11:50PM 36.8750 -86.3920 231° Southwest 376 433 38,000  Level FlightAware
11:51PM 36.8386 -86.4498 232° Southwest 375 432 38,000  Level FlightAware ADS-B
11:51PM 36.8060 -86.5008 231° Southwest 375 432 38,000  Level FlightAware ADS-B
11:52PM 36.7735 -86.5534 232° Southwest 375 432 38,000  Level FlightAware ADS-B
11:52PM 36.7403 -86.6043 231° Southwest 375 432 38,000  Level FlightAware ADS-B
11:53PM 36.7078 -86.6568 232° Southwest 375 432 38,000  Level FlightAware ADS-B
11:53PM 36.6751 -86.7076 231° Southwest 375 432 38,000  Level FlightAware ADS-B
11:54PM 36.6424 -86.7584 231° Southwest 375 432 38,000  Level FlightAware ADS-B
11:54PM 36.6029 -86.8211 232° Southwest 377 434 38,000  Level FlightAware ADS-B
11:55PM 36.5470 -86.9080 231° Southwest 379 436 38,000  Level FlightAware
11:56PM 36.4880 -87.0000 231° Southwest 380 437 38,000  Level FlightAware
11:57PM 36.4280 -87.0930 231° Southwest 381 438 38,000  Level FlightAware
11:58PM 36.3710 -87.1820 232° Southwest 382 440 38,000 -420 Level FlightAware
11:59PM 36.3180 -87.2640 231° Southwest 386 444 37,300 -1,200 Descending FlightAware
11:59PM 36.2640 -87.3480 231° Southwest 394 453 36,100 -1,500 Descending FlightAware
12:00AM 36.2080 -87.4340 231° Southwest 406 467 35,000 -660 Descending FlightAware
12:01AM 36.1430 -87.5320 231° Southwest 407 468 35,000 -300 Level FlightAware
12:02AM 36.1060 -87.5900 232° Southwest 401 461 34,600 -1,380 Descending FlightAware
12:03AM 36.0350 -87.6980 231° Southwest 411 473 32,900 -1,680 Descending FlightAware
12:03AM 35.9750 -87.7880 231° Southwest 414 476 31,600 -1,620 Descending FlightAware
12:04AM 35.9420 -87.8400 232° Southwest 417 480 30,800 -2,100 Descending FlightAware
12:05AM 35.8750 -87.9420 231° Southwest 436 502 28,800 -2,280 Descending FlightAware
12:05AM 35.8200 -88.0230 230° Southwest 444 511 27,200 -1,440 Descending FlightAware
12:06AM 35.7900 -88.0660 229° Southwest 444 511 27,200  Level FlightAware
12:07AM 35.7220 -88.1670 230° Southwest 444 511 27,200  Level FlightAware
12:07AM 35.6810 -88.2260 229° Southwest 444 511 27,200  Level FlightAware
12:08AM 35.6280 -88.3050 230° Southwest 444 511 27,200  Level FlightAware
12:09AM 35.5740 -88.3840 230° Southwest 444 511 27,200 -3,300 Level FlightAware
12:10AM 35.4672 -88.5242 230° Southwest 385 443 20,700 -3,900 Descending Memphis Center
12:11AM 35.3975 -88.6122 226° Southwest 368 423 18,700 -1,800 Descending Memphis Center
12:12AM 35.3361 -88.6875 225° Southwest 352 405 17,100 -1,860 Descending Memphis Center
12:13AM 35.2703 -88.7700 226° Southwest 352 405 15,000 -2,040 Descending Memphis Center
12:14AM 35.2047 -88.8500 225° Southwest 341 392 13,100 -1,920 Descending Memphis Center
12:15AM 35.1408 -88.9325 227° Southwest 336 387 11,200 -1,440 Descending Memphis Center
12:16AM 35.0814 -89.0097 227° Southwest 323 372 10,300 -900 Descending Memphis Center
12:17AM 35.0361 -89.0789 231° Southwest 288 331 9,500 -960 Descending Memphis Center
12:18AM 35.0350 -89.1753 269° West 253 291 8,400 -1,020 Descending Memphis Center
12:19AM 35.0381 -89.2667 272° West 264 304 7,500 -1,200 Descending Memphis Center
12:20AM 35.0428 -89.3528 274° West 264 304 6,100 -1,320 Descending Memphis Center
12:21AM 35.0456 -89.4414 272° West 264 304 4,900 -1,020 Descending Memphis Center
12:22AM 35.0442 -89.5225 269° West 259 298 4,100 -600 Descending Memphis Center
12:23AM 35.0467 -89.5886 273° West 222 255 3,700 -600 Descending Memphis Center
12:24AM 35.0511 -89.6544 275° West 196 226 3,000 -360 Descending Memphis Center
12:25AM 35.0536 -89.7153 273° West 196 226 3,000  Level Memphis Center
12:26AM 35.0539 -89.7761 270° West 191 220 3,000 -360 Level Memphis Center
12:27AM 35.0564 -89.8319 273° West 174 200 2,300 -840 Descending Memphis Center
12:28AM 35.0564 -89.8878 270° West 174 200 1,400 -840 Descending Memphis Center
12:29AM 35.0589 -89.9333 274° West 148 170 700 -480 Descending Memphis Center
12:30AM 35.0589 -89.9792 270° West 142 163 500 -240 Descending Memphis Center
12:32AM 35.0424 -89.9767 270° West  Level Estimated
12:39AM 35.0424 -89.9767 270° West  Level Estimated
12:40AM 35.0424 -89.9767 270° West  Level Estimated
12:41AM 35.0424 -89.9767 270° West  Level Estimated
12:42AM 35.0424 -89.9767 270° West  Level Estimated
12:43AM 35.0424 -89.9767 270° West  Level Estimated
12:44AM 35.0424 -89.9767 270° West  Level Estimated